sensor_id;sensor_type;location;lat;lon;timestamp;temperature;humidity
63976;DHT22;50167;47.958;21.780;2022-08-21T00:00:22;24.29;63.05
63976;DHT22;50167;47.958;21.780;2022-08-21T00:03:00;25.49;59.55
63976;DHT22;50167;47.958;21.780;2022-08-21T00:05:24;25.67;57.16
63976;DHT22;50167;47.958;21.780;2022-08-21T00:07:51;25.07;58.23
63976;DHT22;50167;47.958;21.780;2022-08-21T00:10:18;24.52;59.71
63976;DHT22;50167;47.958;21.780;2022-08-21T00:12:45;24.13;60.80
63976;DHT22;50167;47.958;21.780;2022-08-21T00:15:18;23.84;62.07
63976;DHT22;50167;47.958;21.780;2022-08-21T00:17:43;23.60;62.85
63976;DHT22;50167;47.958;21.780;2022-08-21T00:20:12;24.26;61.65
63976;DHT22;50167;47.958;21.780;2022-08-21T00:22:39;25.39;60.28
63976;DHT22;50167;47.958;21.780;2022-08-21T00:25:07;26.14;58.46
63976;DHT22;50167;47.958;21.780;2022-08-21T00:27:34;26.04;57.08
63976;DHT22;50167;47.958;21.780;2022-08-21T00:30:00;25.36;58.43
63976;DHT22;50167;47.958;21.780;2022-08-21T00:32:28;24.77;59.99
63976;DHT22;50167;47.958;21.780;2022-08-21T00:34:55;24.32;61.20
63976;DHT22;50167;47.958;21.780;2022-08-21T00:37:21;23.98;62.99
63976;DHT22;50167;47.958;21.780;2022-08-21T00:39:47;24.54;62.71
63976;DHT22;50167;47.958;21.780;2022-08-21T00:42:14;25.53;60.30
63976;DHT22;50167;47.958;21.780;2022-08-21T00:44:44;26.09;58.27
63976;DHT22;50167;47.958;21.780;2022-08-21T00:47:11;25.95;57.40
63976;DHT22;50167;47.958;21.780;2022-08-21T00:49:39;25.21;58.99
63976;DHT22;50167;47.958;21.780;2022-08-21T00:52:09;24.57;60.67
63976;DHT22;50167;47.958;21.780;2022-08-21T00:54:36;24.09;61.46
63976;DHT22;50167;47.958;21.780;2022-08-21T00:57:14;23.71;62.92
63976;DHT22;50167;47.958;21.780;2022-08-21T00:59:40;24.25;63.28
63976;DHT22;50167;47.958;21.780;2022-08-21T01:02:09;25.32;60.78
63976;DHT22;50167;47.958;21.780;2022-08-21T01:04:36;25.88;58.55
63976;DHT22;50167;47.958;21.780;2022-08-21T01:07:03;25.72;57.95
63976;DHT22;50167;47.958;21.780;2022-08-21T01:09:30;25.00;59.23
63976;DHT22;50167;47.958;21.780;2022-08-21T01:11:56;24.39;60.72
63976;DHT22;50167;47.958;21.780;2022-08-21T01:14:23;23.91;61.66
63976;DHT22;50167;47.958;21.780;2022-08-21T01:16:52;23.53;63.30
63976;DHT22;50167;47.958;21.780;2022-08-21T01:19:21;24.06;63.78
63976;DHT22;50167;47.958;21.780;2022-08-21T01:21:49;25.14;61.74
63976;DHT22;50167;47.958;21.780;2022-08-21T01:24:15;25.73;58.98
63976;DHT22;50167;47.958;21.780;2022-08-21T01:26:42;25.59;58.25
63976;DHT22;50167;47.958;21.780;2022-08-21T01:29:36;24.87;59.36
63976;DHT22;50167;47.958;21.780;2022-08-21T01:32:10;24.16;60.85
63976;DHT22;50167;47.958;21.780;2022-08-21T01:34:39;23.67;62.10
63976;DHT22;50167;47.958;21.780;2022-08-21T01:37:07;24.01;62.83
63976;DHT22;50167;47.958;21.780;2022-08-21T01:39:34;25.00;61.42
63976;DHT22;50167;47.958;21.780;2022-08-21T01:42:00;25.62;59.62
63976;DHT22;50167;47.958;21.780;2022-08-21T01:44:27;25.50;58.36
63976;DHT22;50167;47.958;21.780;2022-08-21T01:46:55;24.71;60.07
63976;DHT22;50167;47.958;21.780;2022-08-21T01:49:23;24.04;61.35
63976;DHT22;50167;47.958;21.780;2022-08-21T01:51:49;23.56;63.24
63976;DHT22;50167;47.958;21.780;2022-08-21T01:54:15;24.05;63.53
63976;DHT22;50167;47.958;21.780;2022-08-21T01:56:45;25.01;61.44
63976;DHT22;50167;47.958;21.780;2022-08-21T01:59:13;25.62;59.50
63976;DHT22;50167;47.958;21.780;2022-08-21T02:01:39;25.46;58.36
63976;DHT22;50167;47.958;21.780;2022-08-21T02:04:07;24.63;59.93
63976;DHT22;50167;47.958;21.780;2022-08-21T02:06:34;24.01;61.45
63976;DHT22;50167;47.958;21.780;2022-08-21T02:09:04;23.51;63.37
63976;DHT22;50167;47.958;21.780;2022-08-21T02:11:33;24.01;63.52
63976;DHT22;50167;47.958;21.780;2022-08-21T02:14:00;25.00;60.50
63976;DHT22;50167;47.958;21.780;2022-08-21T02:16:27;25.59;59.10
63976;DHT22;50167;47.958;21.780;2022-08-21T02:18:53;25.33;58.48
63976;DHT22;50167;47.958;21.780;2022-08-21T02:21:19;24.59;60.25
63976;DHT22;50167;47.958;21.780;2022-08-21T02:23:46;23.92;61.97
63976;DHT22;50167;47.958;21.780;2022-08-21T02:26:12;23.40;63.67
63976;DHT22;50167;47.958;21.780;2022-08-21T02:28:40;23.98;64.52
63976;DHT22;50167;47.958;21.780;2022-08-21T02:31:06;24.97;62.18
63976;DHT22;50167;47.958;21.780;2022-08-21T02:33:33;25.56;59.65
63976;DHT22;50167;47.958;21.780;2022-08-21T02:35:59;25.84;58.57
63976;DHT22;50167;47.958;21.780;2022-08-21T02:38:30;25.52;57.63
63976;DHT22;50167;47.958;21.780;2022-08-21T02:40:59;24.64;59.61
63976;DHT22;50167;47.958;21.780;2022-08-21T02:43:27;23.96;61.58
63976;DHT22;50167;47.958;21.780;2022-08-21T02:45:56;23.46;62.99
63976;DHT22;50167;47.958;21.780;2022-08-21T02:48:27;23.89;63.44
63976;DHT22;50167;47.958;21.780;2022-08-21T02:51:07;24.82;61.21
63976;DHT22;50167;47.958;21.780;2022-08-21T02:53:34;25.40;60.02
63976;DHT22;50167;47.958;21.780;2022-08-21T02:56:05;25.67;58.01
63976;DHT22;50167;47.958;21.780;2022-08-21T02:58:36;25.26;58.25
63976;DHT22;50167;47.958;21.780;2022-08-21T03:01:04;24.43;60.79
63976;DHT22;50167;47.958;21.780;2022-08-21T03:03:30;23.73;62.51
63976;DHT22;50167;47.958;21.780;2022-08-21T03:05:56;24.02;63.70
63976;DHT22;50167;47.958;21.780;2022-08-21T03:08:23;24.91;61.55
63976;DHT22;50167;47.958;21.780;2022-08-21T03:10:51;25.42;59.45
63976;DHT22;50167;47.958;21.780;2022-08-21T03:13:19;25.25;59.03
63976;DHT22;50167;47.958;21.780;2022-08-21T03:15:48;24.44;60.70
63976;DHT22;50167;47.958;21.780;2022-08-21T03:18:15;23.77;62.16
63976;DHT22;50167;47.958;21.780;2022-08-21T03:20:42;23.98;63.13
63976;DHT22;50167;47.958;21.780;2022-08-21T03:23:11;24.88;61.77
63976;DHT22;50167;47.958;21.780;2022-08-21T03:25:38;25.46;60.21
63976;DHT22;50167;47.958;21.780;2022-08-21T03:28:09;25.26;58.90
63976;DHT22;50167;47.958;21.780;2022-08-21T03:30:35;24.47;60.56
63976;DHT22;50167;47.958;21.780;2022-08-21T03:33:02;23.78;62.54
63976;DHT22;50167;47.958;21.780;2022-08-21T03:35:29;24.06;63.59
63976;DHT22;50167;47.958;21.780;2022-08-21T03:37:55;24.95;61.77
63976;DHT22;50167;47.958;21.780;2022-08-21T03:40:22;25.48;60.28
63976;DHT22;50167;47.958;21.780;2022-08-21T03:42:51;25.72;58.34
63976;DHT22;50167;47.958;21.780;2022-08-21T03:45:18;25.07;59.09
63976;DHT22;50167;47.958;21.780;2022-08-21T03:48:01;24.29;60.86
63976;DHT22;50167;47.958;21.780;2022-08-21T03:50:32;23.64;62.85
63976;DHT22;50167;47.958;21.780;2022-08-21T03:52:58;24.11;63.80
63976;DHT22;50167;47.958;21.780;2022-08-21T03:55:25;25.09;61.07
63976;DHT22;50167;47.958;21.780;2022-08-21T03:57:52;25.70;59.57
63976;DHT22;50167;47.958;21.780;2022-08-21T04:00:20;25.57;58.83
63976;DHT22;50167;47.958;21.780;2022-08-21T04:02:46;24.82;60.23
63976;DHT22;50167;47.958;21.780;2022-08-21T04:05:14;24.22;61.76
63976;DHT22;50167;47.958;21.780;2022-08-21T04:07:43;23.77;63.22
63976;DHT22;50167;47.958;21.780;2022-08-21T04:10:09;24.27;63.45
63976;DHT22;50167;47.958;21.780;2022-08-21T04:12:35;25.23;61.45
63976;DHT22;50167;47.958;21.780;2022-08-21T04:15:01;25.76;60.03
63976;DHT22;50167;47.958;21.780;2022-08-21T04:17:27;26.14;58.77
63976;DHT22;50167;47.958;21.780;2022-08-21T04:19:53;25.90;58.11
63976;DHT22;50167;47.958;21.780;2022-08-21T04:22:19;25.12;59.56
63976;DHT22;50167;47.958;21.780;2022-08-21T04:24:45;24.56;61.20
63976;DHT22;50167;47.958;21.780;2022-08-21T04:27:11;24.08;62.47
63976;DHT22;50167;47.958;21.780;2022-08-21T04:29:37;24.52;63.25
63976;DHT22;50167;47.958;21.780;2022-08-21T04:32:04;25.49;61.27
63976;DHT22;50167;47.958;21.780;2022-08-21T04:34:30;26.09;59.37
63976;DHT22;50167;47.958;21.780;2022-08-21T04:36:56;26.01;58.19
63976;DHT22;50167;47.958;21.780;2022-08-21T04:39:22;25.28;59.47
63976;DHT22;50167;47.958;21.780;2022-08-21T04:41:48;24.73;60.92
63976;DHT22;50167;47.958;21.780;2022-08-21T04:44:15;24.25;62.29
63976;DHT22;50167;47.958;21.780;2022-08-21T04:46:41;24.60;62.80
63976;DHT22;50167;47.958;21.780;2022-08-21T04:49:06;25.55;61.15
63976;DHT22;50167;47.958;21.780;2022-08-21T04:51:36;26.15;59.27
63976;DHT22;50167;47.958;21.780;2022-08-21T04:54:10;25.94;58.36
63976;DHT22;50167;47.958;21.780;2022-08-21T04:56:49;25.17;59.73
63976;DHT22;50167;47.958;21.780;2022-08-21T04:59:23;24.52;61.45
63976;DHT22;50167;47.958;21.780;2022-08-21T05:01:46;24.05;62.92
63976;DHT22;50167;47.958;21.780;2022-08-21T05:04:16;24.50;63.44
63976;DHT22;50167;47.958;21.780;2022-08-21T05:06:45;25.50;61.35
63976;DHT22;50167;47.958;21.780;2022-08-21T05:09:15;26.07;59.59
63976;DHT22;50167;47.958;21.780;2022-08-21T05:11:42;25.86;58.56
63976;DHT22;50167;47.958;21.780;2022-08-21T05:14:11;25.08;60.31
63976;DHT22;50167;47.958;21.780;2022-08-21T05:16:37;24.40;62.14
63976;DHT22;50167;47.958;21.780;2022-08-21T05:19:06;23.94;63.73
63976;DHT22;50167;47.958;21.780;2022-08-21T05:21:39;24.47;63.98
63976;DHT22;50167;47.958;21.780;2022-08-21T05:24:05;25.43;61.89
63976;DHT22;50167;47.958;21.780;2022-08-21T05:26:31;26.03;60.37
63976;DHT22;50167;47.958;21.780;2022-08-21T05:28:57;26.52;59.07
63976;DHT22;50167;47.958;21.780;2022-08-21T05:31:24;26.38;58.07
63976;DHT22;50167;47.958;21.780;2022-08-21T05:33:50;25.73;59.23
63976;DHT22;50167;47.958;21.780;2022-08-21T05:36:18;25.22;60.89
63976;DHT22;50167;47.958;21.780;2022-08-21T05:38:44;24.87;61.82
63976;DHT22;50167;47.958;21.780;2022-08-21T05:41:10;24.53;62.85
63976;DHT22;50167;47.958;21.780;2022-08-21T05:43:36;25.11;63.50
63976;DHT22;50167;47.958;21.780;2022-08-21T05:46:04;26.15;61.10
63976;DHT22;50167;47.958;21.780;2022-08-21T05:48:31;26.91;58.87
63976;DHT22;50167;47.958;21.780;2022-08-21T05:51:07;26.85;57.47
63976;DHT22;50167;47.958;21.780;2022-08-21T05:53:35;26.24;58.84
63976;DHT22;50167;47.958;21.780;2022-08-21T05:56:02;25.70;60.23
63976;DHT22;50167;47.958;21.780;2022-08-21T05:58:32;25.42;61.46
63976;DHT22;50167;47.958;21.780;2022-08-21T06:01:00;25.15;62.20
63976;DHT22;50167;47.958;21.780;2022-08-21T06:03:31;24.92;63.09
63976;DHT22;50167;47.958;21.780;2022-08-21T06:05:58;25.67;62.91
63976;DHT22;50167;47.958;21.780;2022-08-21T06:08:25;26.78;59.76
63976;DHT22;50167;47.958;21.780;2022-08-21T06:10:53;27.52;57.52
63976;DHT22;50167;47.958;21.780;2022-08-21T06:13:20;27.51;56.36
63976;DHT22;50167;47.958;21.780;2022-08-21T06:15:47;26.93;57.41
63976;DHT22;50167;47.958;21.780;2022-08-21T06:18:14;26.45;58.74
63976;DHT22;50167;47.958;21.780;2022-08-21T06:20:41;26.14;59.87
63976;DHT22;50167;47.958;21.780;2022-08-21T06:23:10;25.87;60.56
63976;DHT22;50167;47.958;21.780;2022-08-21T06:25:36;25.65;61.28
63976;DHT22;50167;47.958;21.780;2022-08-21T06:28:10;25.57;61.87
63976;DHT22;50167;47.958;21.780;2022-08-21T06:30:38;25.57;61.86
63976;DHT22;50167;47.958;21.780;2022-08-21T06:33:07;25.60;62.20
63976;DHT22;50167;47.958;21.780;2022-08-21T06:35:34;25.56;62.48
63976;DHT22;50167;47.958;21.780;2022-08-21T06:38:01;26.34;60.53
63976;DHT22;50167;47.958;21.780;2022-08-21T06:40:28;27.49;57.82
63976;DHT22;50167;47.958;21.780;2022-08-21T06:42:55;27.64;56.40
63976;DHT22;50167;47.958;21.780;2022-08-21T06:45:21;27.14;57.26
63976;DHT22;50167;47.958;21.780;2022-08-21T06:50:28;26.28;59.21
63976;DHT22;50167;47.958;21.780;2022-08-21T06:53:08;26.03;60.25
63976;DHT22;50167;47.958;21.780;2022-08-21T06:55:37;25.86;60.57
63976;DHT22;50167;47.958;21.780;2022-08-21T06:58:05;25.76;61.39
63976;DHT22;50167;47.958;21.780;2022-08-21T07:00:46;25.65;61.26
63976;DHT22;50167;47.958;21.780;2022-08-21T07:03:24;25.53;60.89
63976;DHT22;50167;47.958;21.780;2022-08-21T07:05:51;25.49;61.45
63976;DHT22;50167;47.958;21.780;2022-08-21T07:08:18;25.40;61.54
63976;DHT22;50167;47.958;21.780;2022-08-21T07:10:44;25.32;62.11
63976;DHT22;50167;47.958;21.780;2022-08-21T07:13:10;25.33;61.78
63976;DHT22;50167;47.958;21.780;2022-08-21T07:15:36;25.33;61.96
63976;DHT22;50167;47.958;21.780;2022-08-21T07:18:03;25.36;61.53
63976;DHT22;50167;47.958;21.780;2022-08-21T07:20:30;25.36;61.84
63976;DHT22;50167;47.958;21.780;2022-08-21T07:23:03;25.39;61.50
63976;DHT22;50167;47.958;21.780;2022-08-21T07:25:31;25.39;61.20
63976;DHT22;50167;47.958;21.780;2022-08-21T07:27:57;25.42;60.97
63976;DHT22;50167;47.958;21.780;2022-08-21T07:30:24;25.45;61.37
63976;DHT22;50167;47.958;21.780;2022-08-21T07:32:50;25.52;61.01
63976;DHT22;50167;47.958;21.780;2022-08-21T07:39:16;25.59;60.73
63976;DHT22;50167;47.958;21.780;2022-08-21T07:41:42;25.60;61.02
63976;DHT22;50167;47.958;21.780;2022-08-21T07:44:08;25.57;61.10
63976;DHT22;50167;47.958;21.780;2022-08-21T07:46:34;25.56;60.92
63976;DHT22;50167;47.958;21.780;2022-08-21T07:49:00;25.50;60.78
63976;DHT22;50167;47.958;21.780;2022-08-21T07:51:28;25.50;60.87
63976;DHT22;50167;47.958;21.780;2022-08-21T07:53:57;25.46;61.00
63976;DHT22;50167;47.958;21.780;2022-08-21T07:56:26;25.42;60.99
63976;DHT22;50167;47.958;21.780;2022-08-21T07:58:52;25.39;61.57
63976;DHT22;50167;47.958;21.780;2022-08-21T08:01:19;25.39;61.51
63976;DHT22;50167;47.958;21.780;2022-08-21T08:03:46;25.40;61.17
63976;DHT22;50167;47.958;21.780;2022-08-21T08:06:12;25.39;61.20
63976;DHT22;50167;47.958;21.780;2022-08-21T08:08:40;25.36;61.00
63976;DHT22;50167;47.958;21.780;2022-08-21T08:11:09;25.35;61.49
63976;DHT22;50167;47.958;21.780;2022-08-21T08:13:47;25.30;61.54
63976;DHT22;50167;47.958;21.780;2022-08-21T08:16:15;25.26;61.65
63976;DHT22;50167;47.958;21.780;2022-08-21T08:18:41;25.18;61.47
63976;DHT22;50167;47.958;21.780;2022-08-21T08:21:09;25.09;61.98
63976;DHT22;50167;47.958;21.780;2022-08-21T08:23:36;25.05;62.24
63976;DHT22;50167;47.958;21.780;2022-08-21T08:26:04;24.95;62.22
63976;DHT22;50167;47.958;21.780;2022-08-21T08:28:32;24.90;62.44
63976;DHT22;50167;47.958;21.780;2022-08-21T08:31:00;25.67;63.07
63976;DHT22;50167;47.958;21.780;2022-08-21T08:33:27;26.96;59.58
63976;DHT22;50167;47.958;21.780;2022-08-21T08:35:54;27.25;57.70
63976;DHT22;50167;47.958;21.780;2022-08-21T08:38:23;26.76;58.34
63976;DHT22;50167;47.958;21.780;2022-08-21T08:41:16;26.31;59.31
63976;DHT22;50167;47.958;21.780;2022-08-21T08:43:51;25.93;60.36
63976;DHT22;50167;47.958;21.780;2022-08-21T08:49:30;25.46;62.03
63976;DHT22;50167;47.958;21.780;2022-08-21T08:52:06;25.25;62.59
63976;DHT22;50167;47.958;21.780;2022-08-21T08:54:41;26.03;63.61
63976;DHT22;50167;47.958;21.780;2022-08-21T08:57:09;27.15;61.56
63976;DHT22;50167;47.958;21.780;2022-08-21T08:59:42;27.76;59.37
63976;DHT22;50167;47.958;21.780;2022-08-21T09:02:11;27.61;58.88
63976;DHT22;50167;47.958;21.780;2022-08-21T09:04:39;26.91;60.11
63976;DHT22;50167;47.958;21.780;2022-08-21T09:15:54;27.71;61.21
63976;DHT22;50167;47.958;21.780;2022-08-21T09:24:37;26.82;61.36
63976;DHT22;50167;47.958;21.780;2022-08-21T09:27:16;26.07;63.27
63976;DHT22;50167;47.958;21.780;2022-08-21T09:29:46;26.51;63.88
63976;DHT22;50167;47.958;21.780;2022-08-21T09:32:17;27.32;61.99
63976;DHT22;50167;47.958;21.780;2022-08-21T09:37:25;28.09;59.85
63976;DHT22;50167;47.958;21.780;2022-08-21T09:39:51;28.27;59.64
63976;DHT22;50167;47.958;21.780;2022-08-21T09:42:28;28.48;59.43
63976;DHT22;50167;47.958;21.780;2022-08-21T09:45:16;28.16;58.75
63976;DHT22;50167;47.958;21.780;2022-08-21T09:47:43;27.28;61.06
63976;DHT22;50167;47.958;21.780;2022-08-21T09:50:16;26.66;62.28
63976;DHT22;50167;47.958;21.780;2022-08-21T09:52:55;26.97;63.01
63976;DHT22;50167;47.958;21.780;2022-08-21T09:55:58;27.64;60.90
63976;DHT22;50167;47.958;21.780;2022-08-21T09:58:44;28.02;62.32
63976;DHT22;50167;47.958;21.780;2022-08-21T10:01:20;28.17;59.23
63976;DHT22;50167;47.958;21.780;2022-08-21T10:03:44;27.87;59.50
63976;DHT22;50167;47.958;21.780;2022-08-21T10:06:25;27.15;60.70
63976;DHT22;50167;47.958;21.780;2022-08-21T10:09:06;26.51;62.42
63976;DHT22;50167;47.958;21.780;2022-08-21T10:11:34;26.80;64.07
63976;DHT22;50167;47.958;21.780;2022-08-21T10:14:37;27.61;61.34
63976;DHT22;50167;47.958;21.780;2022-08-21T10:18:04;28.07;60.90
63976;DHT22;50167;47.958;21.780;2022-08-21T10:31:52;27.31;62.18
63976;DHT22;50167;47.958;21.780;2022-08-21T10:37:39;27.79;61.11
63976;DHT22;50167;47.958;21.780;2022-08-21T10:40:30;27.93;60.46
63976;DHT22;50167;47.958;21.780;2022-08-21T10:48:58;27.80;59.96
63976;DHT22;50167;47.958;21.780;2022-08-21T10:51:32;27.01;62.67
63976;DHT22;50167;47.958;21.780;2022-08-21T10:54:20;27.15;63.49
63976;DHT22;50167;47.958;21.780;2022-08-21T10:56:47;27.87;61.95
63976;DHT22;50167;47.958;21.780;2022-08-21T10:59:47;28.27;61.23
63976;DHT22;50167;47.958;21.780;2022-08-21T11:02:40;28.52;60.27
63976;DHT22;50167;47.958;21.780;2022-08-21T11:13:06;27.62;61.13
63976;DHT22;50167;47.958;21.780;2022-08-21T11:15:51;26.91;64.06
63976;DHT22;50167;47.958;21.780;2022-08-21T11:18:32;27.38;63.22
63976;DHT22;50167;47.958;21.780;2022-08-21T11:21:15;28.22;61.23
63976;DHT22;50167;47.958;21.780;2022-08-21T11:26:32;28.93;59.18
63976;DHT22;50167;47.958;21.780;2022-08-21T11:29:30;28.65;59.46
63976;DHT22;50167;47.958;21.780;2022-08-21T11:35:10;26.99;63.35
63976;DHT22;50167;47.958;21.780;2022-08-21T11:41:08;28.40;61.18
63976;DHT22;50167;47.958;21.780;2022-08-21T11:43:43;28.95;59.06
63976;DHT22;50167;47.958;21.780;2022-08-21T11:55:04;27.09;62.11
63976;DHT22;50167;47.958;21.780;2022-08-21T12:01:00;26.93;63.00
63976;DHT22;50167;47.958;21.780;2022-08-21T12:03:34;28.04;62.33
63976;DHT22;50167;47.958;21.780;2022-08-21T12:06:12;29.11;58.63
63976;DHT22;50167;47.958;21.780;2022-08-21T12:08:42;29.30;55.41
63976;DHT22;50167;47.958;21.780;2022-08-21T12:11:23;29.00;57.10
63976;DHT22;50167;47.958;21.780;2022-08-21T12:14:12;28.86;57.36
63976;DHT22;50167;47.958;21.780;2022-08-21T12:16:35;28.79;57.49
63976;DHT22;50167;47.958;21.780;2022-08-21T12:19:35;28.78;57.09
63976;DHT22;50167;47.958;21.780;2022-08-21T12:27:29;28.17;57.57
63976;DHT22;50167;47.958;21.780;2022-08-21T12:30:04;28.12;58.16
63976;DHT22;50167;47.958;21.780;2022-08-21T12:32:44;28.13;58.82
63976;DHT22;50167;47.958;21.780;2022-08-21T12:35:21;28.09;58.24
63976;DHT22;50167;47.958;21.780;2022-08-21T12:38:29;28.26;58.88
63976;DHT22;50167;47.958;21.780;2022-08-21T12:41:06;28.83;55.01
63976;DHT22;50167;47.958;21.780;2022-08-21T12:44:03;29.58;54.29
63976;DHT22;50167;47.958;21.780;2022-08-21T12:46:39;30.40;53.45
63976;DHT22;50167;47.958;21.780;2022-08-21T12:49:31;31.21;50.40
63976;DHT22;50167;47.958;21.780;2022-08-21T12:52:29;32.08;49.79
63976;DHT22;50167;47.958;21.780;2022-08-21T12:54:52;32.63;46.52
63976;DHT22;50167;47.958;21.780;2022-08-21T12:57:25;33.00;45.82
63976;DHT22;50167;47.958;21.780;2022-08-21T12:59:57;33.34;44.82
63976;DHT22;50167;47.958;21.780;2022-08-21T13:02:37;33.68;42.84
63976;DHT22;50167;47.958;21.780;2022-08-21T13:05:08;34.05;42.30
63976;DHT22;50167;47.958;21.780;2022-08-21T13:07:36;34.13;41.76
63976;DHT22;50167;47.958;21.780;2022-08-21T13:10:29;34.03;41.91
63976;DHT22;50167;47.958;21.780;2022-08-21T13:13:00;34.22;41.45
63976;DHT22;50167;47.958;21.780;2022-08-21T13:15:34;34.32;41.81
63976;DHT22;50167;47.958;21.780;2022-08-21T13:18:04;34.12;40.61
63976;DHT22;50167;47.958;21.780;2022-08-21T13:20:38;33.79;41.05
63976;DHT22;50167;47.958;21.780;2022-08-21T13:23:26;33.63;41.88
63976;DHT22;50167;47.958;21.780;2022-08-21T13:25:54;33.69;43.10
63976;DHT22;50167;47.958;21.780;2022-08-21T13:28:22;34.10;40.30
63976;DHT22;50167;47.958;21.780;2022-08-21T13:30:51;34.54;39.64
63976;DHT22;50167;47.958;21.780;2022-08-21T13:33:22;35.16;39.31
63976;DHT22;50167;47.958;21.780;2022-08-21T13:38:30;36.07;37.08
63976;DHT22;50167;47.958;21.780;2022-08-21T13:41:26;36.41;37.19
63976;DHT22;50167;47.958;21.780;2022-08-21T13:44:18;36.55;34.65
63976;DHT22;50167;47.958;21.780;2022-08-21T13:46:45;36.45;35.57
63976;DHT22;50167;47.958;21.780;2022-08-21T13:49:17;36.41;35.12
63976;DHT22;50167;47.958;21.780;2022-08-21T13:51:44;36.52;35.59
63976;DHT22;50167;47.958;21.780;2022-08-21T13:54:29;36.82;36.01
63976;DHT22;50167;47.958;21.780;2022-08-21T13:56:55;37.16;34.84
63976;DHT22;50167;47.958;21.780;2022-08-21T13:59:35;37.37;34.65
63976;DHT22;50167;47.958;21.780;2022-08-21T14:02:12;37.54;33.70
63976;DHT22;50167;47.958;21.780;2022-08-21T14:04:50;37.24;34.58
63976;DHT22;50167;47.958;21.780;2022-08-21T14:07:28;36.61;35.32
63976;DHT22;50167;47.958;21.780;2022-08-21T14:09:54;35.90;35.54
63976;DHT22;50167;47.958;21.780;2022-08-21T14:12:41;35.45;36.42
63976;DHT22;50167;47.958;21.780;2022-08-21T14:15:12;35.00;37.01
63976;DHT22;50167;47.958;21.780;2022-08-21T14:17:40;34.71;37.65
63976;DHT22;50167;47.958;21.780;2022-08-21T14:20:12;34.63;38.25
63976;DHT22;50167;47.958;21.780;2022-08-21T14:22:46;34.50;38.47
63976;DHT22;50167;47.958;21.780;2022-08-21T14:25:28;34.47;38.38
63976;DHT22;50167;47.958;21.780;2022-08-21T14:30:42;33.48;39.52
63976;DHT22;50167;47.958;21.780;2022-08-21T14:33:13;32.87;40.99
63976;DHT22;50167;47.958;21.780;2022-08-21T14:35:40;32.27;41.21
63976;DHT22;50167;47.958;21.780;2022-08-21T14:38:16;31.72;41.97
63976;DHT22;50167;47.958;21.780;2022-08-21T14:40:45;31.22;44.21
63976;DHT22;50167;47.958;21.780;2022-08-21T14:43:12;30.77;45.62
63976;DHT22;50167;47.958;21.780;2022-08-21T14:45:38;30.42;45.91
63976;DHT22;50167;47.958;21.780;2022-08-21T14:48:07;30.08;47.06
63976;DHT22;50167;47.958;21.780;2022-08-21T14:50:34;29.83;46.74
63976;DHT22;50167;47.958;21.780;2022-08-21T14:53:01;29.61;47.67
63976;DHT22;50167;47.958;21.780;2022-08-21T14:55:31;29.46;47.81
63976;DHT22;50167;47.958;21.780;2022-08-21T14:58:02;29.27;49.56
63976;DHT22;50167;47.958;21.780;2022-08-21T15:00:29;29.20;49.70
63976;DHT22;50167;47.958;21.780;2022-08-21T15:02:55;29.19;48.49
63976;DHT22;50167;47.958;21.780;2022-08-21T15:05:21;29.10;51.11
63976;DHT22;50167;47.958;21.780;2022-08-21T15:07:47;29.02;49.66
63976;DHT22;50167;47.958;21.780;2022-08-21T15:10:13;28.95;50.01
63976;DHT22;50167;47.958;21.780;2022-08-21T15:12:39;28.81;48.90
63976;DHT22;50167;47.958;21.780;2022-08-21T15:15:07;28.72;49.97
63976;DHT22;50167;47.958;21.780;2022-08-21T15:17:34;28.55;50.97
63976;DHT22;50167;47.958;21.780;2022-08-21T15:20:00;28.44;51.43
63976;DHT22;50167;47.958;21.780;2022-08-21T15:22:26;28.28;52.74
63976;DHT22;50167;47.958;21.780;2022-08-21T15:24:52;28.17;53.09
63976;DHT22;50167;47.958;21.780;2022-08-21T15:27:19;28.06;52.88
63976;DHT22;50167;47.958;21.780;2022-08-21T15:29:45;27.96;53.81
63976;DHT22;50167;47.958;21.780;2022-08-21T15:32:21;27.92;52.77
63976;DHT22;50167;47.958;21.780;2022-08-21T15:34:51;27.80;53.05
63976;DHT22;50167;47.958;21.780;2022-08-21T15:37:18;27.72;54.06
63976;DHT22;50167;47.958;21.780;2022-08-21T15:39:44;27.72;53.40
63976;DHT22;50167;47.958;21.780;2022-08-21T15:42:12;27.68;53.62
63976;DHT22;50167;47.958;21.780;2022-08-21T15:44:42;27.69;53.91
63976;DHT22;50167;47.958;21.780;2022-08-21T15:47:17;27.69;52.76
63976;DHT22;50167;47.958;21.780;2022-08-21T15:49:41;27.68;53.65
63976;DHT22;50167;47.958;21.780;2022-08-21T15:52:09;27.59;54.44
63976;DHT22;50167;47.958;21.780;2022-08-21T15:54:35;27.52;54.31
63976;DHT22;50167;47.958;21.780;2022-08-21T15:57:01;27.48;54.25
63976;DHT22;50167;47.958;21.780;2022-08-21T15:59:29;27.41;55.34
63976;DHT22;50167;47.958;21.780;2022-08-21T16:01:57;27.31;53.96
63976;DHT22;50167;47.958;21.780;2022-08-21T16:04:26;27.24;55.43
63976;DHT22;50167;47.958;21.780;2022-08-21T16:06:53;27.13;55.06
63976;DHT22;50167;47.958;21.780;2022-08-21T16:09:21;27.06;55.42
63976;DHT22;50167;47.958;21.780;2022-08-21T16:11:47;26.94;55.89
63976;DHT22;50167;47.958;21.780;2022-08-21T16:14:15;26.86;56.60
63976;DHT22;50167;47.958;21.780;2022-08-21T16:16:44;26.79;56.88
63976;DHT22;50167;47.958;21.780;2022-08-21T16:19:12;26.70;56.92
63976;DHT22;50167;47.958;21.780;2022-08-21T16:21:39;26.62;57.36
63976;DHT22;50167;47.958;21.780;2022-08-21T16:24:05;26.49;57.41
63976;DHT22;50167;47.958;21.780;2022-08-21T16:26:32;26.42;58.45
63976;DHT22;50167;47.958;21.780;2022-08-21T16:29:00;26.34;59.47
63976;DHT22;50167;47.958;21.780;2022-08-21T16:31:28;26.30;60.07
63976;DHT22;50167;47.958;21.780;2022-08-21T16:33:55;26.22;60.10
63976;DHT22;50167;47.958;21.780;2022-08-21T16:36:22;26.12;60.96
63976;DHT22;50167;47.958;21.780;2022-08-21T16:38:52;26.05;61.43
63976;DHT22;50167;47.958;21.780;2022-08-21T16:41:21;25.98;61.03
63976;DHT22;50167;47.958;21.780;2022-08-21T16:43:49;25.90;61.70
63976;DHT22;50167;47.958;21.780;2022-08-21T16:46:17;25.84;62.79
63976;DHT22;50167;47.958;21.780;2022-08-21T16:48:44;26.66;61.48
63976;DHT22;50167;47.958;21.780;2022-08-21T16:51:13;27.86;59.06
63976;DHT22;50167;47.958;21.780;2022-08-21T16:53:40;28.04;57.61
63976;DHT22;50167;47.958;21.780;2022-08-21T16:56:09;27.55;58.30
63976;DHT22;50167;47.958;21.780;2022-08-21T16:58:40;27.09;58.80
63976;DHT22;50167;47.958;21.780;2022-08-21T17:01:10;26.79;60.18
63976;DHT22;50167;47.958;21.780;2022-08-21T17:03:42;26.49;60.60